createdAt,value
2019-04-11T00:01:46.898Z,29.05
2019-04-11T00:05:54.896Z,26.15
2019-04-11T00:10:08.212Z,23.67
2019-04-11T00:14:16.433Z,29.70
2019-04-11T00:18:27.061Z,25.23
2019-04-11T00:22:40.354Z,25.72
2019-04-11T00:26:54.813Z,24.63
2019-04-11T00:31:09.487Z,28.75
2019-04-11T00:35:28.215Z,24.23
2019-04-11T00:39:40.642Z,22.73
2019-04-11T00:43:50.575Z,24.75
2019-04-11T00:47:59.979Z,28.92
2019-04-11T00:52:08.478Z,29.17
2019-04-11T00:56:17.848Z,33.60
2019-04-11T01:00:29.079Z,26.60
2019-04-11T01:04:37.426Z,24.60
2019-04-11T01:08:48.531Z,31.13
2019-04-11T01:13:00.787Z,30.77
2019-04-11T01:17:15.445Z,28.50
2019-04-11T01:21:30.611Z,32.15
2019-04-11T01:25:40.928Z,25.62
2019-04-11T01:29:52.049Z,24.30
2019-04-11T01:34:04.499Z,26.90
2019-04-11T01:38:22.152Z,20.75
2019-04-11T01:42:33.373Z,24.27
2019-04-11T01:46:48.565Z,26.27
2019-04-11T01:50:59.088Z,28.95
2019-04-11T01:55:14.405Z,30.17
2019-04-11T01:59:27.070Z,28.65
2019-04-11T02:03:55.886Z,29.52
2019-04-11T02:08:09.560Z,30.45
2019-04-11T02:12:20.810Z,28.57
2019-04-11T02:16:30.531Z,25.88
2019-04-11T02:20:42.042Z,30.65
2019-04-11T02:25:00.786Z,27.98
2019-04-11T02:29:13.775Z,23.35
2019-04-11T02:33:27.042Z,34.78
2019-04-11T02:37:37.950Z,33.50
2019-04-11T02:41:54.786Z,33.33
2019-04-11T02:46:23.223Z,24.57
2019-04-11T02:50:26.749Z,34.53
2019-04-11T02:54:38.742Z,29.55
2019-04-11T02:58:50.484Z,24.85
2019-04-11T03:03:05.669Z,24.20
2019-04-11T03:07:20.442Z,28.20
2019-04-11T03:11:38.507Z,24.77
2019-04-11T03:15:59.494Z,26.00
2019-04-11T03:20:13.046Z,27.73
2019-04-11T03:24:17.452Z,26.52
2019-04-11T03:28:33.399Z,27.82
2019-04-11T03:33:43.823Z,29.05
2019-04-11T03:37:23.636Z,29.15
2019-04-11T03:41:23.672Z,22.02
2019-04-11T03:45:43.853Z,28.60
2019-04-11T03:49:51.856Z,24.15
2019-04-11T04:06:06.666Z,32.73
2019-04-11T04:10:31.899Z,28.53
2019-04-11T04:15:01.389Z,26.87
2019-04-11T04:19:33.302Z,33.95
2019-04-11T04:23:49.495Z,31.57
2019-04-11T04:27:58.911Z,29.50
2019-04-11T04:32:08.205Z,29.42
2019-04-11T04:36:17.737Z,30.50
2019-04-11T04:40:46.307Z,30.08
2019-04-11T04:44:40.449Z,36.60
2019-04-11T04:48:51.469Z,29.07
2019-04-11T04:53:00.933Z,25.23
2019-04-11T04:57:09.283Z,28.87
2019-04-11T05:01:17.564Z,28.55
2019-04-11T05:05:26.831Z,32.13
2019-04-11T05:09:36.067Z,28.90
2019-04-11T05:13:48.190Z,40.23
2019-04-11T05:17:53.295Z,37.07
2019-04-11T05:22:01.811Z,38.17
2019-04-11T05:26:09.130Z,33.80
2019-04-11T05:30:16.763Z,34.53
2019-04-11T05:34:25.841Z,31.00
2019-04-11T05:38:33.377Z,31.77
2019-04-11T05:42:41.713Z,29.18
2019-04-11T05:46:56.234Z,30.70
2019-04-11T05:51:00.522Z,28.65
2019-04-11T05:55:13.527Z,31.95
2019-04-11T05:59:25.566Z,31.85
2019-04-11T06:03:32.439Z,27.52
2019-04-11T06:08:05.445Z,29.27
2019-04-11T06:12:31.787Z,29.92
2019-04-11T06:16:46.179Z,33.80
2019-04-11T06:20:51.836Z,31.65
2019-04-11T06:25:28.163Z,31.97
2019-04-11T06:30:01.274Z,27.13
2019-04-11T06:34:09.920Z,27.73
2019-04-11T06:38:44.966Z,25.77
2019-04-11T06:43:04.135Z,30.20
2019-04-11T06:47:32.832Z,29.12
2019-04-11T06:51:50.474Z,31.23
2019-04-11T06:56:19.539Z,24.23
2019-04-11T07:00:27.582Z,23.60
2019-04-11T07:04:38.157Z,23.83
2019-04-11T07:09:12.791Z,31.30
2019-04-11T07:13:37.154Z,26.25
2019-04-11T07:18:04.702Z,30.75
2019-04-11T07:22:30.533Z,29.48
2019-04-11T07:26:43.940Z,29.42
2019-04-11T07:31:08.380Z,27.02
2019-04-11T07:35:33.644Z,25.80
2019-04-11T07:39:58.703Z,27.77
2019-04-11T07:44:06.408Z,26.10
2019-04-11T07:48:21.452Z,31.68
2019-04-11T07:52:30.587Z,25.90
2019-04-11T07:56:46.356Z,27.30
2019-04-11T08:01:24.898Z,26.37
2019-04-11T08:06:07.462Z,25.75
2019-04-11T08:10:20.602Z,24.80
2019-04-11T08:15:01.690Z,23.57
2019-04-11T08:19:26.883Z,28.45
2019-04-11T08:23:34.476Z,27.67
2019-04-11T08:27:54.917Z,26.77
2019-04-11T08:32:19.912Z,30.72
2019-04-11T08:36:47.162Z,25.80
2019-04-11T08:41:09.622Z,26.35
2019-04-11T08:45:17.621Z,23.80
2019-04-11T08:49:35.084Z,25.90
2019-04-11T08:53:59.888Z,25.85
2019-04-11T08:58:29.364Z,25.92
2019-04-11T09:02:51.375Z,27.82
2019-04-11T09:06:59.167Z,26.30
2019-04-11T09:11:26.564Z,27.00
2019-04-11T09:16:10.940Z,23.02
2019-04-11T09:20:35.925Z,29.00
2019-04-11T09:25:00.996Z,27.93
2019-04-11T09:29:08.531Z,33.67
2019-04-11T09:33:33.587Z,26.35
2019-04-11T09:37:44.556Z,29.35
2019-04-11T09:42:26.406Z,28.73
2019-04-11T09:46:53.296Z,25.25
2019-04-11T09:51:19.549Z,29.20
2019-04-11T09:55:51.898Z,27.05
2019-04-11T10:00:27.034Z,25.48
2019-04-11T10:04:36.103Z,30.68
2019-04-11T10:08:46.960Z,29.85
2019-04-11T10:13:13.021Z,23.55
2019-04-11T10:17:42.476Z,27.58
2019-04-11T10:22:04.887Z,29.92
2019-04-11T10:26:21.045Z,28.20
2019-04-11T10:30:46.488Z,28.07
2019-04-11T10:35:19.044Z,36.50
2019-04-11T10:40:00.268Z,24.90
2019-04-11T10:44:08.252Z,26.27
2019-04-11T10:48:17.878Z,32.53
2019-04-11T10:52:28.787Z,28.27
2019-04-11T10:57:07.594Z,29.60
2019-04-11T11:01:42.740Z,26.33
2019-04-11T11:05:53.371Z,25.25
2019-04-11T11:10:07.045Z,28.45
2019-04-11T11:14:52.401Z,21.17
2019-04-11T11:19:33.767Z,28.38
2019-04-11T11:23:45.105Z,29.60
2019-04-11T11:27:52.420Z,29.40
2019-04-11T11:32:07.062Z,22.45
2019-04-11T11:36:37.608Z,24.63
2019-04-11T11:41:16.336Z,27.05
2019-04-11T11:45:54.906Z,23.38
2019-04-11T11:50:03.324Z,25.30
2019-04-11T11:54:31.469Z,24.95
2019-04-11T11:59:02.815Z,23.83
2019-04-11T12:03:30.960Z,26.40
2019-04-11T12:07:47.926Z,28.50
2019-04-11T12:11:59.591Z,20.62
2019-04-11T12:16:29.978Z,22.50
2019-04-11T12:20:44.760Z,27.67
2019-04-11T12:25:05.469Z,22.48
2019-04-11T12:29:24.415Z,19.90
2019-04-11T12:33:50.288Z,22.57
2019-04-11T12:38:02.647Z,24.87
2019-04-11T12:42:21.341Z,26.87
2019-04-11T12:46:46.821Z,23.10
2019-04-11T12:51:15.690Z,26.40
2019-04-11T12:55:28.469Z,28.25
2019-04-11T12:59:36.244Z,25.62
2019-04-11T13:04:00.839Z,24.72
2019-04-11T13:08:27.962Z,23.27
2019-04-11T13:12:59.877Z,22.07
2019-04-11T13:17:08.531Z,24.27
2019-04-11T13:21:34.425Z,27.02
2019-04-11T13:26:18.959Z,18.73
2019-04-11T13:30:43.387Z,21.37
2019-04-11T13:34:51.299Z,19.87
2019-04-11T13:39:02.524Z,19.77
2019-04-11T13:43:26.807Z,20.32
2019-04-11T13:47:57.117Z,22.10
2019-04-11T13:52:23.179Z,19.15
2019-04-11T13:56:40.218Z,17.67
2019-04-11T14:00:59.728Z,19.15
2019-04-11T14:05:10.638Z,22.02
2019-04-11T14:09:34.176Z,18.87
2019-04-11T14:13:43.066Z,20.95
2019-04-11T14:18:24.849Z,17.10
2019-04-11T14:22:33.954Z,18.85
2019-04-11T14:26:44.334Z,19.67
2019-04-11T14:31:03.396Z,22.10
2019-04-11T14:35:28.083Z,22.90
2019-04-11T14:39:39.352Z,19.62
2019-04-11T14:43:54.200Z,18.85
2019-04-11T14:48:17.029Z,19.82
2019-04-11T14:57:42.630Z,20.85
2019-04-11T15:01:54.622Z,20.08
2019-04-11T15:06:19.740Z,24.00
2019-04-11T15:10:54.407Z,22.67
2019-04-11T15:15:20.321Z,22.35
2019-04-11T15:19:27.726Z,24.23
2019-04-11T15:23:38.420Z,24.07
2019-04-11T15:28:04.462Z,18.85
2019-04-11T15:33:04.846Z,20.27
2019-04-11T15:37:29.606Z,17.87
2019-04-11T15:41:39.705Z,17.77
2019-04-11T15:45:54.670Z,27.15
2019-04-11T15:50:36.556Z,21.68
2019-04-11T15:55:02.519Z,26.27
2019-04-11T15:59:26.687Z,19.70
2019-04-11T16:03:34.385Z,18.98
2019-04-11T16:08:13.841Z,19.55
2019-04-11T16:12:29.902Z,20.37
2019-04-11T16:17:13.948Z,20.12
2019-04-11T16:21:25.075Z,18.82
2019-04-11T16:25:34.341Z,21.57
2019-04-11T16:29:49.256Z,18.63
2019-04-11T16:34:08.259Z,21.75
2019-04-11T16:38:19.139Z,19.60
2019-04-11T16:42:41.513Z,18.17
2019-04-11T16:47:08.291Z,24.55
2019-04-11T16:51:17.242Z,17.62
2019-04-11T16:55:24.574Z,23.80
2019-04-11T16:59:31.846Z,21.57
2019-04-11T17:03:39.158Z,20.85
2019-04-11T17:07:57.185Z,17.00
2019-04-11T17:12:07.559Z,23.67
2019-04-11T17:16:17.126Z,19.10
2019-04-11T17:20:25.069Z,19.00
2019-04-11T17:24:33.431Z,21.42
2019-04-11T17:28:43.332Z,21.00
2019-04-11T17:32:50.913Z,18.63
2019-04-11T17:37:02.552Z,20.30
2019-04-11T17:41:11.977Z,23.22
2019-04-11T17:45:19.390Z,17.17
2019-04-11T17:49:29.484Z,21.55
2019-04-11T17:57:49.314Z,19.70
2019-04-11T18:01:57.513Z,21.10
2019-04-11T18:06:07.700Z,18.40
2019-04-11T18:10:15.231Z,23.57
2019-04-11T18:14:25.254Z,17.80
2019-04-11T18:18:35.316Z,20.30
2019-04-11T18:22:50.379Z,21.82
2019-04-11T18:26:57.055Z,19.60
2019-04-11T18:31:07.385Z,24.82
2019-04-11T18:35:17.571Z,27.00
2019-04-11T18:47:45.098Z,20.95
2019-04-11T18:51:54.351Z,21.25
2019-04-11T18:56:05.484Z,20.87
2019-04-11T19:00:15.278Z,22.20
2019-04-11T19:04:31.744Z,21.97
2019-04-11T19:08:35.365Z,19.77
2019-04-11T19:12:46.444Z,20.32
2019-04-11T19:16:54.702Z,19.25
2019-04-11T19:21:03.664Z,20.50
2019-04-11T19:25:13.213Z,27.02
2019-04-11T19:29:24.797Z,22.65
2019-04-11T19:33:36.486Z,18.63
2019-04-11T19:37:45.103Z,21.57
2019-04-11T19:41:56.832Z,24.43
2019-04-11T19:46:09.849Z,24.07
2019-04-11T19:50:18.720Z,27.13
2019-04-11T19:54:32.729Z,22.27
2019-04-11T19:58:39.526Z,21.12
2019-04-11T20:02:47.037Z,18.00
2019-04-11T20:06:54.980Z,25.02
2019-04-11T20:11:04.204Z,27.27
2019-04-11T20:15:20.713Z,36.23
2019-04-11T20:19:32.588Z,29.72
2019-04-11T20:23:41.867Z,18.95
2019-04-11T20:27:51.356Z,23.20
2019-04-11T20:31:58.912Z,21.17
2019-04-11T20:36:11.111Z,20.30
2019-04-11T20:40:24.626Z,22.60
2019-04-11T20:44:32.700Z,21.07
2019-04-11T20:48:41.724Z,21.97
2019-04-11T20:52:51.322Z,25.87
2019-04-11T20:56:59.623Z,20.17
2019-04-11T21:01:07.578Z,18.92
2019-04-11T21:05:17.733Z,20.70
2019-04-11T21:09:27.547Z,18.07
2019-04-11T21:13:38.052Z,23.32
2019-04-11T21:17:46.162Z,20.92
2019-04-11T21:21:54.424Z,26.55
2019-04-11T21:26:05.867Z,21.67
2019-04-11T21:34:19.744Z,21.37
2019-04-11T21:38:30.866Z,21.48
2019-04-11T21:42:39.696Z,20.70
2019-04-11T21:46:49.557Z,28.23
2019-04-11T21:51:00.287Z,26.23
2019-04-11T21:55:15.173Z,24.45
2019-04-11T21:59:21.026Z,21.57
2019-04-11T22:03:31.784Z,25.20
2019-04-11T22:07:43.100Z,24.67
2019-04-11T22:11:50.462Z,26.55
2019-04-11T22:16:02.389Z,24.47
2019-04-11T22:20:09.660Z,21.52
2019-04-11T22:24:17.198Z,21.73
2019-04-11T22:28:25.702Z,23.50
2019-04-11T22:32:33.216Z,23.45
2019-04-11T22:36:42.033Z,21.27
2019-04-11T22:40:50.292Z,24.23
2019-04-11T22:44:58.145Z,22.60
2019-04-11T22:49:08.880Z,23.22
2019-04-11T22:53:16.169Z,23.90
2019-04-11T22:57:28.263Z,18.32
2019-04-11T23:01:35.612Z,24.32
2019-04-11T23:05:46.512Z,26.07
2019-04-11T23:09:54.767Z,20.52
2019-04-11T23:14:03.029Z,21.35
2019-04-11T23:18:11.841Z,20.52
2019-04-11T23:22:20.481Z,22.73
2019-04-11T23:26:28.130Z,19.57
2019-04-11T23:30:36.315Z,18.65
2019-04-11T23:34:43.656Z,20.62
2019-04-11T23:38:53.742Z,25.35
2019-04-11T23:43:01.370Z,20.32
2019-04-11T23:47:12.004Z,26.00
2019-04-11T23:51:25.291Z,20.48
2019-04-11T23:55:30.742Z,20.23
2019-04-11T23:59:38.499Z,21.05
